sensor_id;sensor_type;location;lat;lon;timestamp;pressure;altitude;pressure_sealevel;temperature;humidity
70555;BME280;58104;52.744;15.242;2023-07-09T00:00:59;101374.03;;;25.55;35.74
70555;BME280;58104;52.744;15.242;2023-07-09T00:03:25;101374.99;;;25.54;35.88
70555;BME280;58104;52.744;15.242;2023-07-09T00:05:50;101377.02;;;25.45;35.96
70555;BME280;58104;52.744;15.242;2023-07-09T00:08:24;101378.49;;;25.44;35.98
70555;BME280;58104;52.744;15.242;2023-07-09T00:10:41;101379.01;;;25.45;36.04
70555;BME280;58104;52.744;15.242;2023-07-09T00:13:07;101382.44;;;25.36;35.99
70555;BME280;58104;52.744;15.242;2023-07-09T00:15:32;101386.75;;;25.48;36.01
70555;BME280;58104;52.744;15.242;2023-07-09T00:17:57;101388.40;;;25.50;35.97
70555;BME280;58104;52.744;15.242;2023-07-09T00:20:22;101391.50;;;25.50;35.87
70555;BME280;58104;52.744;15.242;2023-07-09T00:22:48;101390.03;;;25.50;35.89
70555;BME280;58104;52.744;15.242;2023-07-09T00:25:13;101384.66;;;25.52;35.95
70555;BME280;58104;52.744;15.242;2023-07-09T00:27:38;101386.98;;;25.48;36.03
70555;BME280;58104;52.744;15.242;2023-07-09T00:30:04;101385.59;;;25.51;35.96
70555;BME280;58104;52.744;15.242;2023-07-09T00:32:28;101388.27;;;25.44;36.10
70555;BME280;58104;52.744;15.242;2023-07-09T00:34:54;101384.89;;;25.49;35.96
70555;BME280;58104;52.744;15.242;2023-07-09T00:37:21;101380.90;;;25.53;35.86
70555;BME280;58104;52.744;15.242;2023-07-09T00:39:46;101381.46;;;25.52;35.97
70555;BME280;58104;52.744;15.242;2023-07-09T00:42:13;101385.16;;;25.43;36.05
70555;BME280;58104;52.744;15.242;2023-07-09T00:44:36;101388.23;;;25.45;36.00
70555;BME280;58104;52.744;15.242;2023-07-09T00:47:15;101388.23;;;25.48;35.98
70555;BME280;58104;52.744;15.242;2023-07-09T00:49:29;101384.34;;;25.47;35.96
70555;BME280;58104;52.744;15.242;2023-07-09T00:51:52;101385.61;;;25.48;35.96
70555;BME280;58104;52.744;15.242;2023-07-09T00:54:22;101386.49;;;25.50;35.95
70555;BME280;58104;52.744;15.242;2023-07-09T00:56:45;101391.06;;;25.51;36.02
70555;BME280;58104;52.744;15.242;2023-07-09T00:59:12;101391.56;;;25.38;36.04
70555;BME280;58104;52.744;15.242;2023-07-09T01:01:34;101392.51;;;25.39;36.06
70555;BME280;58104;52.744;15.242;2023-07-09T01:04:00;101391.68;;;25.42;36.08
70555;BME280;58104;52.744;15.242;2023-07-09T01:06:28;101389.45;;;25.44;36.06
70555;BME280;58104;52.744;15.242;2023-07-09T01:08:49;101390.76;;;25.45;36.09
70555;BME280;58104;52.744;15.242;2023-07-09T01:11:16;101391.36;;;25.51;36.08
70555;BME280;58104;52.744;15.242;2023-07-09T01:13:40;101391.82;;;25.28;36.22
70555;BME280;58104;52.744;15.242;2023-07-09T01:16:05;101387.35;;;25.47;36.15
70555;BME280;58104;52.744;15.242;2023-07-09T01:18:31;101385.53;;;25.33;36.18
70555;BME280;58104;52.744;15.242;2023-07-09T01:21:03;101385.14;;;25.43;36.14
70555;BME280;58104;52.744;15.242;2023-07-09T01:23:21;101385.03;;;25.35;36.13
70555;BME280;58104;52.744;15.242;2023-07-09T01:25:50;101383.22;;;25.46;36.13
70555;BME280;58104;52.744;15.242;2023-07-09T01:28:12;101384.60;;;25.46;36.17
70555;BME280;58104;52.744;15.242;2023-07-09T01:30:39;101382.14;;;25.48;36.17
70555;BME280;58104;52.744;15.242;2023-07-09T01:33:03;101379.34;;;25.40;36.27
70555;BME280;58104;52.744;15.242;2023-07-09T01:35:30;101377.97;;;25.32;36.43
70555;BME280;58104;52.744;15.242;2023-07-09T01:37:53;101376.87;;;25.32;36.39
70555;BME280;58104;52.744;15.242;2023-07-09T01:40:20;101379.91;;;25.42;36.41
70555;BME280;58104;52.744;15.242;2023-07-09T01:42:44;101377.57;;;25.29;36.38
70555;BME280;58104;52.744;15.242;2023-07-09T01:45:10;101380.01;;;25.24;36.49
70555;BME280;58104;52.744;15.242;2023-07-09T01:47:35;101379.21;;;25.27;36.41
70555;BME280;58104;52.744;15.242;2023-07-09T01:50:00;101376.34;;;25.34;36.39
70555;BME280;58104;52.744;15.242;2023-07-09T01:52:27;101377.21;;;25.25;36.43
70555;BME280;58104;52.744;15.242;2023-07-09T01:54:51;101377.34;;;25.34;36.38
70555;BME280;58104;52.744;15.242;2023-07-09T01:57:18;101378.09;;;25.25;36.44
70555;BME280;58104;52.744;15.242;2023-07-09T01:59:42;101377.80;;;25.30;36.40
70555;BME280;58104;52.744;15.242;2023-07-09T02:02:07;101378.91;;;25.26;36.47
70555;BME280;58104;52.744;15.242;2023-07-09T02:04:32;101381.25;;;25.34;36.47
70555;BME280;58104;52.744;15.242;2023-07-09T02:06:57;101388.12;;;25.32;36.43
70555;BME280;58104;52.744;15.242;2023-07-09T02:09:23;101387.38;;;25.28;36.44
70555;BME280;58104;52.744;15.242;2023-07-09T02:11:48;101388.73;;;25.26;36.42
70555;BME280;58104;52.744;15.242;2023-07-09T02:14:13;101389.40;;;25.20;36.46
70555;BME280;58104;52.744;15.242;2023-07-09T02:16:38;101392.09;;;25.30;36.45
70555;BME280;58104;52.744;15.242;2023-07-09T02:19:04;101391.59;;;25.13;36.63
70555;BME280;58104;52.744;15.242;2023-07-09T02:21:29;101390.47;;;25.28;36.52
70555;BME280;58104;52.744;15.242;2023-07-09T02:23:54;101391.51;;;25.15;36.52
70555;BME280;58104;52.744;15.242;2023-07-09T02:26:19;101388.62;;;25.12;36.61
70555;BME280;58104;52.744;15.242;2023-07-09T02:28:45;101392.53;;;25.31;36.54
70555;BME280;58104;52.744;15.242;2023-07-09T02:31:10;101390.76;;;25.25;36.58
70555;BME280;58104;52.744;15.242;2023-07-09T02:33:35;101388.94;;;25.16;36.65
70555;BME280;58104;52.744;15.242;2023-07-09T02:36:01;101388.49;;;25.19;36.58
70555;BME280;58104;52.744;15.242;2023-07-09T02:38:26;101392.75;;;25.17;36.70
70555;BME280;58104;52.744;15.242;2023-07-09T02:40:51;101395.92;;;25.19;36.75
70555;BME280;58104;52.744;15.242;2023-07-09T02:43:16;101394.77;;;25.17;36.63
70555;BME280;58104;52.744;15.242;2023-07-09T02:45:41;101393.48;;;25.25;36.66
70555;BME280;58104;52.744;15.242;2023-07-09T02:48:07;101395.92;;;25.18;36.75
70555;BME280;58104;52.744;15.242;2023-07-09T02:50:32;101397.59;;;25.19;36.71
70555;BME280;58104;52.744;15.242;2023-07-09T02:52:58;101399.56;;;25.16;36.62
70555;BME280;58104;52.744;15.242;2023-07-09T02:55:23;101400.68;;;25.17;36.75
70555;BME280;58104;52.744;15.242;2023-07-09T02:57:48;101399.35;;;25.17;36.74
70555;BME280;58104;52.744;15.242;2023-07-09T03:00:15;101395.60;;;25.23;36.60
70555;BME280;58104;52.744;15.242;2023-07-09T03:02:39;101395.64;;;25.17;36.71
70555;BME280;58104;52.744;15.242;2023-07-09T03:05:05;101401.05;;;25.14;36.73
70555;BME280;58104;52.744;15.242;2023-07-09T03:07:30;101406.73;;;25.20;36.67
70555;BME280;58104;52.744;15.242;2023-07-09T03:09:56;101403.84;;;25.16;36.84
70555;BME280;58104;52.744;15.242;2023-07-09T03:12:21;101400.68;;;25.13;36.82
70555;BME280;58104;52.744;15.242;2023-07-09T03:14:48;101397.66;;;25.15;36.76
70555;BME280;58104;52.744;15.242;2023-07-09T03:17:13;101399.01;;;25.18;36.64
70555;BME280;58104;52.744;15.242;2023-07-09T03:19:38;101400.71;;;25.18;36.63
70555;BME280;58104;52.744;15.242;2023-07-09T03:22:03;101403.79;;;25.30;36.51
70555;BME280;58104;52.744;15.242;2023-07-09T03:24:28;101398.31;;;25.20;36.65
70555;BME280;58104;52.744;15.242;2023-07-09T03:26:53;101398.78;;;25.18;36.63
70555;BME280;58104;52.744;15.242;2023-07-09T03:29:19;101398.94;;;25.19;36.62
70555;BME280;58104;52.744;15.242;2023-07-09T03:31:44;101401.27;;;25.21;36.69
70555;BME280;58104;52.744;15.242;2023-07-09T03:34:09;101397.44;;;25.19;36.67
70555;BME280;58104;52.744;15.242;2023-07-09T03:36:35;101398.39;;;25.36;36.43
70555;BME280;58104;52.744;15.242;2023-07-09T03:39:00;101401.27;;;25.19;36.73
70555;BME280;58104;52.744;15.242;2023-07-09T03:41:25;101403.55;;;25.27;36.51
70555;BME280;58104;52.744;15.242;2023-07-09T03:43:51;101402.52;;;25.24;36.64
70555;BME280;58104;52.744;15.242;2023-07-09T03:46:16;101403.32;;;25.18;36.58
70555;BME280;58104;52.744;15.242;2023-07-09T03:48:41;101405.31;;;25.21;36.71
70555;BME280;58104;52.744;15.242;2023-07-09T03:51:07;101406.71;;;25.24;36.63
70555;BME280;58104;52.744;15.242;2023-07-09T03:53:32;101407.83;;;25.29;36.63
70555;BME280;58104;52.744;15.242;2023-07-09T03:55:57;101410.00;;;25.12;37.18
70555;BME280;58104;52.744;15.242;2023-07-09T03:58:23;101412.91;;;25.11;37.31
70555;BME280;58104;52.744;15.242;2023-07-09T04:00:48;101411.22;;;24.82;36.83
70555;BME280;58104;52.744;15.242;2023-07-09T04:03:13;101409.99;;;24.70;36.80
70555;BME280;58104;52.744;15.242;2023-07-09T04:05:38;101409.07;;;24.65;36.58
70555;BME280;58104;52.744;15.242;2023-07-09T04:08:04;101411.61;;;24.75;36.49
70555;BME280;58104;52.744;15.242;2023-07-09T04:10:29;101414.72;;;24.95;36.36
70555;BME280;58104;52.744;15.242;2023-07-09T04:12:54;101415.20;;;24.73;36.09
70555;BME280;58104;52.744;15.242;2023-07-09T04:15:19;101418.08;;;24.87;36.63
70555;BME280;58104;52.744;15.242;2023-07-09T04:17:44;101417.38;;;25.02;36.87
70555;BME280;58104;52.744;15.242;2023-07-09T04:20:10;101414.97;;;24.95;36.60
70555;BME280;58104;52.744;15.242;2023-07-09T04:22:35;101418.24;;;25.00;36.81
70555;BME280;58104;52.744;15.242;2023-07-09T04:25:00;101423.40;;;25.33;36.52
70555;BME280;58104;52.744;15.242;2023-07-09T04:27:25;101426.28;;;25.33;36.59
70555;BME280;58104;52.744;15.242;2023-07-09T04:29:50;101424.74;;;25.31;36.64
70555;BME280;58104;52.744;15.242;2023-07-09T04:32:15;101428.36;;;25.30;36.72
70555;BME280;58104;52.744;15.242;2023-07-09T04:34:40;101428.70;;;25.33;36.80
70555;BME280;58104;52.744;15.242;2023-07-09T04:37:06;101431.07;;;25.40;36.70
70555;BME280;58104;52.744;15.242;2023-07-09T04:39:31;101434.75;;;25.42;36.81
70555;BME280;58104;52.744;15.242;2023-07-09T04:41:56;101440.34;;;25.45;36.79
70555;BME280;58104;52.744;15.242;2023-07-09T04:44:21;101448.58;;;25.40;36.88
70555;BME280;58104;52.744;15.242;2023-07-09T04:46:47;101452.66;;;25.46;36.91
70555;BME280;58104;52.744;15.242;2023-07-09T04:49:12;101451.30;;;25.48;36.93
70555;BME280;58104;52.744;15.242;2023-07-09T04:51:38;101451.59;;;25.43;36.98
70555;BME280;58104;52.744;15.242;2023-07-09T04:54:03;101451.20;;;25.51;37.02
70555;BME280;58104;52.744;15.242;2023-07-09T04:56:28;101452.53;;;25.44;37.10
70555;BME280;58104;52.744;15.242;2023-07-09T04:58:54;101453.31;;;25.50;37.15
70555;BME280;58104;52.744;15.242;2023-07-09T05:01:19;101454.31;;;25.38;37.59
70555;BME280;58104;52.744;15.242;2023-07-09T05:03:45;101457.52;;;25.33;37.83
70555;BME280;58104;52.744;15.242;2023-07-09T05:06:10;101459.74;;;25.34;37.81
70555;BME280;58104;52.744;15.242;2023-07-09T05:08:35;101464.20;;;25.38;37.81
70555;BME280;58104;52.744;15.242;2023-07-09T05:11:01;101469.02;;;25.35;37.88
70555;BME280;58104;52.744;15.242;2023-07-09T05:13:26;101467.71;;;25.32;38.03
70555;BME280;58104;52.744;15.242;2023-07-09T05:15:52;101467.01;;;25.35;38.17
70555;BME280;58104;52.744;15.242;2023-07-09T05:18:17;101469.70;;;25.39;38.23
70555;BME280;58104;52.744;15.242;2023-07-09T05:20:43;101471.44;;;25.36;38.37
70555;BME280;58104;52.744;15.242;2023-07-09T05:23:08;101474.28;;;25.46;38.24
70555;BME280;58104;52.744;15.242;2023-07-09T05:25:33;101474.12;;;25.51;38.32
70555;BME280;58104;52.744;15.242;2023-07-09T05:27:58;101471.36;;;25.50;38.15
70555;BME280;58104;52.744;15.242;2023-07-09T05:30:24;101469.35;;;25.55;38.27
70555;BME280;58104;52.744;15.242;2023-07-09T05:32:49;101470.20;;;25.66;38.39
70555;BME280;58104;52.744;15.242;2023-07-09T05:35:14;101468.31;;;25.56;38.63
70555;BME280;58104;52.744;15.242;2023-07-09T05:37:39;101469.13;;;25.59;38.73
70555;BME280;58104;52.744;15.242;2023-07-09T05:40:06;101470.19;;;25.65;38.81
70555;BME280;58104;52.744;15.242;2023-07-09T05:42:29;101467.36;;;25.56;39.01
70555;BME280;58104;52.744;15.242;2023-07-09T05:44:55;101470.75;;;25.63;38.91
70555;BME280;58104;52.744;15.242;2023-07-09T05:47:20;101472.20;;;25.70;38.96
70555;BME280;58104;52.744;15.242;2023-07-09T05:49:45;101472.94;;;25.62;38.85
70555;BME280;58104;52.744;15.242;2023-07-09T05:52:11;101475.80;;;25.64;39.13
70555;BME280;58104;52.744;15.242;2023-07-09T05:54:36;101477.00;;;25.70;38.86
70555;BME280;58104;52.744;15.242;2023-07-09T05:57:01;101480.10;;;25.57;39.00
70555;BME280;58104;52.744;15.242;2023-07-09T05:59:26;101480.21;;;25.61;39.10
70555;BME280;58104;52.744;15.242;2023-07-09T06:01:52;101478.75;;;25.75;38.93
70555;BME280;58104;52.744;15.242;2023-07-09T06:04:17;101474.74;;;25.66;38.99
70555;BME280;58104;52.744;15.242;2023-07-09T06:06:42;101479.34;;;25.74;38.92
70555;BME280;58104;52.744;15.242;2023-07-09T06:09:08;101479.43;;;25.66;39.03
70555;BME280;58104;52.744;15.242;2023-07-09T06:11:33;101476.37;;;25.69;39.12
70555;BME280;58104;52.744;15.242;2023-07-09T06:13:58;101472.24;;;25.65;39.34
70555;BME280;58104;52.744;15.242;2023-07-09T06:16:24;101469.37;;;25.79;39.11
70555;BME280;58104;52.744;15.242;2023-07-09T06:18:50;101465.72;;;25.63;39.31
70555;BME280;58104;52.744;15.242;2023-07-09T06:21:15;101465.39;;;25.67;39.29
70555;BME280;58104;52.744;15.242;2023-07-09T06:23:40;101466.22;;;25.68;39.33
70555;BME280;58104;52.744;15.242;2023-07-09T06:26:06;101463.80;;;25.65;39.60
70555;BME280;58104;52.744;15.242;2023-07-09T06:28:32;101463.94;;;25.50;39.70
70555;BME280;58104;52.744;15.242;2023-07-09T06:30:57;101468.40;;;25.56;39.64
70555;BME280;58104;52.744;15.242;2023-07-09T06:33:23;101471.09;;;25.62;39.84
70555;BME280;58104;52.744;15.242;2023-07-09T06:35:48;101470.95;;;25.68;40.29
70555;BME280;58104;52.744;15.242;2023-07-09T06:38:12;101465.99;;;25.80;40.38
70555;BME280;58104;52.744;15.242;2023-07-09T06:40:38;101472.32;;;25.84;40.44
70555;BME280;58104;52.744;15.242;2023-07-09T06:43:03;101473.63;;;25.87;40.66
70555;BME280;58104;52.744;15.242;2023-07-09T06:45:28;101476.53;;;25.84;40.60
70555;BME280;58104;52.744;15.242;2023-07-09T06:47:54;101478.33;;;25.72;40.84
70555;BME280;58104;52.744;15.242;2023-07-09T06:50:19;101478.67;;;25.71;40.80
70555;BME280;58104;52.744;15.242;2023-07-09T06:52:45;101481.78;;;25.75;40.79
70555;BME280;58104;52.744;15.242;2023-07-09T06:55:10;101482.63;;;25.67;40.90
70555;BME280;58104;52.744;15.242;2023-07-09T06:57:37;101478.70;;;25.68;41.02
70555;BME280;58104;52.744;15.242;2023-07-09T07:00:02;101479.44;;;25.65;41.05
70555;BME280;58104;52.744;15.242;2023-07-09T07:02:27;101480.09;;;25.73;41.03
70555;BME280;58104;52.744;15.242;2023-07-09T07:04:52;101480.84;;;25.78;41.11
70555;BME280;58104;52.744;15.242;2023-07-09T07:07:17;101482.76;;;25.74;41.04
70555;BME280;58104;52.744;15.242;2023-07-09T07:09:42;101479.30;;;25.65;41.27
70555;BME280;58104;52.744;15.242;2023-07-09T07:12:08;101476.78;;;25.76;41.13
70555;BME280;58104;52.744;15.242;2023-07-09T07:14:33;101474.66;;;25.77;41.35
70555;BME280;58104;52.744;15.242;2023-07-09T07:16:58;101478.55;;;25.73;41.30
70555;BME280;58104;52.744;15.242;2023-07-09T07:19:23;101481.03;;;25.78;41.34
70555;BME280;58104;52.744;15.242;2023-07-09T07:21:49;101482.09;;;25.77;41.44
70555;BME280;58104;52.744;15.242;2023-07-09T07:24:14;101485.92;;;25.78;41.56
70555;BME280;58104;52.744;15.242;2023-07-09T07:26:40;101484.05;;;25.66;41.67
70555;BME280;58104;52.744;15.242;2023-07-09T07:29:05;101484.08;;;25.81;41.45
70555;BME280;58104;52.744;15.242;2023-07-09T07:31:30;101480.99;;;25.73;41.60
70555;BME280;58104;52.744;15.242;2023-07-09T07:33:56;101480.19;;;25.74;41.76
70555;BME280;58104;52.744;15.242;2023-07-09T07:36:22;101481.04;;;25.69;41.67
70555;BME280;58104;52.744;15.242;2023-07-09T07:38:47;101487.59;;;25.70;41.61
70555;BME280;58104;52.744;15.242;2023-07-09T07:41:12;101487.46;;;25.71;41.65
70555;BME280;58104;52.744;15.242;2023-07-09T07:43:38;101488.15;;;25.77;41.49
70555;BME280;58104;52.744;15.242;2023-07-09T07:46:03;101483.59;;;25.75;41.57
70555;BME280;58104;52.744;15.242;2023-07-09T07:48:28;101482.10;;;25.87;41.53
70555;BME280;58104;52.744;15.242;2023-07-09T07:50:58;101482.17;;;25.84;41.45
70555;BME280;58104;52.744;15.242;2023-07-09T07:53:19;101484.35;;;25.72;41.65
70555;BME280;58104;52.744;15.242;2023-07-09T07:55:44;101487.24;;;25.73;41.56
70555;BME280;58104;52.744;15.242;2023-07-09T07:58:11;101485.19;;;25.78;41.55
70555;BME280;58104;52.744;15.242;2023-07-09T08:00:35;101485.95;;;25.78;41.55
70555;BME280;58104;52.744;15.242;2023-07-09T08:03:00;101485.55;;;25.78;41.54
70555;BME280;58104;52.744;15.242;2023-07-09T08:05:26;101487.59;;;25.86;41.73
70555;BME280;58104;52.744;15.242;2023-07-09T08:07:51;101490.08;;;25.77;41.70
70555;BME280;58104;52.744;15.242;2023-07-09T08:10:17;101488.56;;;25.75;41.78
70555;BME280;58104;52.744;15.242;2023-07-09T08:12:42;101488.23;;;25.70;41.91
70555;BME280;58104;52.744;15.242;2023-07-09T08:15:08;101485.84;;;25.70;42.00
70555;BME280;58104;52.744;15.242;2023-07-09T08:17:32;101486.89;;;25.76;41.98
70555;BME280;58104;52.744;15.242;2023-07-09T08:19:58;101485.04;;;25.81;41.81
70555;BME280;58104;52.744;15.242;2023-07-09T08:22:23;101485.07;;;25.96;41.62
70555;BME280;58104;52.744;15.242;2023-07-09T08:24:49;101482.33;;;25.83;42.12
70555;BME280;58104;52.744;15.242;2023-07-09T08:27:14;101478.20;;;25.81;42.25
70555;BME280;58104;52.744;15.242;2023-07-09T08:29:40;101476.69;;;25.86;42.15
70555;BME280;58104;52.744;15.242;2023-07-09T08:32:06;101477.79;;;25.88;42.08
70555;BME280;58104;52.744;15.242;2023-07-09T08:34:30;101476.95;;;25.91;42.05
70555;BME280;58104;52.744;15.242;2023-07-09T08:36:56;101474.44;;;25.90;41.99
70555;BME280;58104;52.744;15.242;2023-07-09T08:39:21;101473.67;;;25.89;42.02
70555;BME280;58104;52.744;15.242;2023-07-09T08:41:50;101470.00;;;25.94;41.93
70555;BME280;58104;52.744;15.242;2023-07-09T08:44:29;101467.83;;;26.12;41.81
70555;BME280;58104;52.744;15.242;2023-07-09T08:46:45;101468.72;;;26.06;41.76
70555;BME280;58104;52.744;15.242;2023-07-09T08:49:03;101466.76;;;26.09;41.44
70555;BME280;58104;52.744;15.242;2023-07-09T08:51:34;101465.23;;;26.12;41.47
70555;BME280;58104;52.744;15.242;2023-07-09T08:53:56;101467.81;;;26.10;41.36
70555;BME280;58104;52.744;15.242;2023-07-09T08:56:19;101469.83;;;26.13;41.27
70555;BME280;58104;52.744;15.242;2023-07-09T08:58:45;101473.55;;;26.13;41.21
70555;BME280;58104;52.744;15.242;2023-07-09T09:01:17;101473.31;;;26.18;41.38
70555;BME280;58104;52.744;15.242;2023-07-09T09:03:37;101473.33;;;26.15;41.79
70555;BME280;58104;52.744;15.242;2023-07-09T09:06:00;101473.80;;;26.21;41.82
70555;BME280;58104;52.744;15.242;2023-07-09T09:08:33;101472.57;;;26.24;41.81
70555;BME280;58104;52.744;15.242;2023-07-09T09:10:56;101471.87;;;26.31;41.62
70555;BME280;58104;52.744;15.242;2023-07-09T09:13:20;101472.70;;;26.38;41.54
70555;BME280;58104;52.744;15.242;2023-07-09T09:15:43;101472.96;;;26.38;41.42
70555;BME280;58104;52.744;15.242;2023-07-09T09:18:17;101469.45;;;26.37;41.42
70555;BME280;58104;52.744;15.242;2023-07-09T09:20:32;101472.17;;;26.44;41.25
70555;BME280;58104;52.744;15.242;2023-07-09T09:23:09;101471.05;;;26.44;41.32
70555;BME280;58104;52.744;15.242;2023-07-09T09:25:29;101468.15;;;26.50;41.54
70555;BME280;58104;52.744;15.242;2023-07-09T09:27:48;101469.35;;;26.51;41.45
70555;BME280;58104;52.744;15.242;2023-07-09T09:30:15;101471.15;;;26.52;41.62
70555;BME280;58104;52.744;15.242;2023-07-09T09:32:45;101470.53;;;26.53;41.24
70555;BME280;58104;52.744;15.242;2023-07-09T09:35:11;101471.13;;;26.49;41.29
70555;BME280;58104;52.744;15.242;2023-07-09T09:37:31;101469.97;;;26.21;41.50
70555;BME280;58104;52.744;15.242;2023-07-09T09:39:55;101473.05;;;26.42;41.36
70555;BME280;58104;52.744;15.242;2023-07-09T09:42:23;101469.72;;;26.42;40.76
70555;BME280;58104;52.744;15.242;2023-07-09T09:44:46;101471.84;;;26.37;40.17
70555;BME280;58104;52.744;15.242;2023-07-09T09:47:12;101472.70;;;26.36;40.26
70555;BME280;58104;52.744;15.242;2023-07-09T09:49:39;101472.21;;;26.55;39.87
70555;BME280;58104;52.744;15.242;2023-07-09T09:52:03;101470.78;;;26.30;39.91
70555;BME280;58104;52.744;15.242;2023-07-09T09:54:28;101466.64;;;26.36;39.88
70555;BME280;58104;52.744;15.242;2023-07-09T09:56:54;101469.40;;;26.33;40.12
70555;BME280;58104;52.744;15.242;2023-07-09T09:59:21;101469.50;;;26.32;39.89
70555;BME280;58104;52.744;15.242;2023-07-09T10:01:43;101465.20;;;26.50;39.62
70555;BME280;58104;52.744;15.242;2023-07-09T10:04:16;101458.94;;;26.61;39.09
70555;BME280;58104;52.744;15.242;2023-07-09T10:06:36;101463.28;;;26.72;38.96
70555;BME280;58104;52.744;15.242;2023-07-09T10:09:04;101468.28;;;26.43;39.28
70555;BME280;58104;52.744;15.242;2023-07-09T10:11:31;101462.84;;;26.67;38.38
70555;BME280;58104;52.744;15.242;2023-07-09T10:13:52;101469.01;;;26.53;38.91
70555;BME280;58104;52.744;15.242;2023-07-09T10:16:21;101466.18;;;26.56;38.43
70555;BME280;58104;52.744;15.242;2023-07-09T10:18:49;101465.42;;;26.58;38.16
70555;BME280;58104;52.744;15.242;2023-07-09T10:21:10;101461.26;;;26.41;38.06
70555;BME280;58104;52.744;15.242;2023-07-09T10:23:37;101466.98;;;26.49;37.96
70555;BME280;58104;52.744;15.242;2023-07-09T10:26:03;101454.60;;;26.51;37.33
70555;BME280;58104;52.744;15.242;2023-07-09T10:28:35;101459.42;;;27.01;36.85
70555;BME280;58104;52.744;15.242;2023-07-09T10:30:54;101459.27;;;26.69;37.50
70555;BME280;58104;52.744;15.242;2023-07-09T10:33:20;101459.79;;;26.87;36.62
70555;BME280;58104;52.744;15.242;2023-07-09T10:35:47;101459.61;;;26.82;36.63
70555;BME280;58104;52.744;15.242;2023-07-09T10:38:19;101463.70;;;26.76;36.70
70555;BME280;58104;52.744;15.242;2023-07-09T10:40:33;101462.41;;;26.52;36.99
70555;BME280;58104;52.744;15.242;2023-07-09T10:42:59;101463.46;;;26.35;37.08
70555;BME280;58104;52.744;15.242;2023-07-09T10:45:28;101466.90;;;26.38;36.93
70555;BME280;58104;52.744;15.242;2023-07-09T10:47:49;101465.32;;;26.31;36.89
70555;BME280;58104;52.744;15.242;2023-07-09T10:50:19;101461.75;;;26.34;36.85
70555;BME280;58104;52.744;15.242;2023-07-09T10:52:41;101456.72;;;26.26;36.84
70555;BME280;58104;52.744;15.242;2023-07-09T10:55:08;101454.11;;;26.32;36.82
70555;BME280;58104;52.744;15.242;2023-07-09T10:57:33;101454.30;;;26.30;36.81
70555;BME280;58104;52.744;15.242;2023-07-09T10:59:54;101454.48;;;26.29;36.71
70555;BME280;58104;52.744;15.242;2023-07-09T11:02:24;101451.86;;;26.34;36.58
70555;BME280;58104;52.744;15.242;2023-07-09T11:04:49;101453.99;;;26.28;36.53
70555;BME280;58104;52.744;15.242;2023-07-09T11:07:13;101453.03;;;26.22;36.49
70555;BME280;58104;52.744;15.242;2023-07-09T11:09:40;101455.79;;;26.30;36.39
70555;BME280;58104;52.744;15.242;2023-07-09T11:12:05;101452.41;;;26.29;36.32
70555;BME280;58104;52.744;15.242;2023-07-09T11:14:31;101445.83;;;26.22;36.19
70555;BME280;58104;52.744;15.242;2023-07-09T11:16:53;101447.36;;;26.31;36.09
70555;BME280;58104;52.744;15.242;2023-07-09T11:19:19;101442.22;;;26.37;36.24
70555;BME280;58104;52.744;15.242;2023-07-09T11:21:45;101440.42;;;26.35;35.93
70555;BME280;58104;52.744;15.242;2023-07-09T11:26:34;101433.07;;;26.40;35.78
70555;BME280;58104;52.744;15.242;2023-07-09T11:29:13;101434.30;;;26.44;35.81
70555;BME280;58104;52.744;15.242;2023-07-09T11:31:31;101433.21;;;26.44;35.76
70555;BME280;58104;52.744;15.242;2023-07-09T11:33:59;101429.21;;;26.63;35.23
70555;BME280;58104;52.744;15.242;2023-07-09T11:36:23;101432.64;;;26.64;35.44
70555;BME280;58104;52.744;15.242;2023-07-09T11:38:41;101424.80;;;26.85;34.61
70555;BME280;58104;52.744;15.242;2023-07-09T11:43:33;101417.64;;;26.86;33.64
70555;BME280;58104;52.744;15.242;2023-07-09T11:46:01;101414.94;;;27.06;33.22
70555;BME280;58104;52.744;15.242;2023-07-09T11:48:25;101410.86;;;27.05;32.08
70555;BME280;58104;52.744;15.242;2023-07-09T11:50:50;101407.89;;;26.96;31.62
70555;BME280;58104;52.744;15.242;2023-07-09T11:53:22;101410.43;;;27.09;32.23
70555;BME280;58104;52.744;15.242;2023-07-09T11:55:40;101408.36;;;27.04;32.03
70555;BME280;58104;52.744;15.242;2023-07-09T11:58:04;101411.17;;;26.84;32.34
70555;BME280;58104;52.744;15.242;2023-07-09T12:00:30;101405.75;;;26.72;32.35
70555;BME280;58104;52.744;15.242;2023-07-09T12:02:53;101406.19;;;26.62;32.45
70555;BME280;58104;52.744;15.242;2023-07-09T12:05:21;101402.16;;;26.71;32.36
70555;BME280;58104;52.744;15.242;2023-07-09T12:07:43;101400.22;;;26.62;32.45
70555;BME280;58104;52.744;15.242;2023-07-09T12:10:18;101396.59;;;26.54;32.48
70555;BME280;58104;52.744;15.242;2023-07-09T12:12:34;101391.55;;;26.59;32.31
70555;BME280;58104;52.744;15.242;2023-07-09T12:15:05;101389.70;;;26.53;32.55
70555;BME280;58104;52.744;15.242;2023-07-09T12:17:26;101384.97;;;26.76;32.95
70555;BME280;58104;52.744;15.242;2023-07-09T12:19:51;101379.25;;;26.64;32.25
70555;BME280;58104;52.744;15.242;2023-07-09T12:22:18;101378.42;;;26.67;32.97
70555;BME280;58104;52.744;15.242;2023-07-09T12:24:43;101376.32;;;26.54;32.95
70555;BME280;58104;52.744;15.242;2023-07-09T12:27:19;101377.05;;;26.58;32.96
70555;BME280;58104;52.744;15.242;2023-07-09T12:29:36;101375.24;;;26.53;32.75
70555;BME280;58104;52.744;15.242;2023-07-09T12:31:58;101375.49;;;26.52;32.89
70555;BME280;58104;52.744;15.242;2023-07-09T12:34:24;101372.29;;;26.57;32.71